createdAt,value
2019-01-25T00:00:16.996Z,12.90
2019-01-25T00:01:16.983Z,12.30
2019-01-25T00:02:16.966Z,12.50
2019-01-25T00:03:16.968Z,12.00
2019-01-25T00:04:16.961Z,12.80
2019-01-25T00:05:16.959Z,11.80
2019-01-25T00:06:16.938Z,12.10
2019-01-25T00:07:16.917Z,12.70
2019-01-25T00:08:16.907Z,12.30
2019-01-25T00:09:16.917Z,12.40
2019-01-25T00:10:16.909Z,13.90
2019-01-25T00:11:16.885Z,12.10
2019-01-25T00:12:16.896Z,12.80
2019-01-25T00:13:16.858Z,13.20
2019-01-25T00:14:16.844Z,13.90
2019-01-25T00:15:16.856Z,12.40
2019-01-25T00:16:16.822Z,13.10
2019-01-25T00:17:16.882Z,13.00
2019-01-25T00:18:16.803Z,12.70
2019-01-25T00:19:16.790Z,14.20
2019-01-25T00:20:16.797Z,13.50
2019-01-25T00:21:16.770Z,12.30
2019-01-25T00:22:16.769Z,13.00
2019-01-25T00:23:16.753Z,13.80
2019-01-25T00:24:16.745Z,13.40
2019-01-25T00:25:16.743Z,12.40
2019-01-25T00:26:16.723Z,13.40
2019-01-25T00:27:16.710Z,13.00
2019-01-25T00:28:16.699Z,12.20
2019-01-25T00:29:16.684Z,13.30
2019-01-25T00:30:16.701Z,12.90
2019-01-25T00:31:16.663Z,12.60
2019-01-25T00:32:16.669Z,12.90
2019-01-25T00:33:16.643Z,12.40
2019-01-25T00:34:16.634Z,13.10
2019-01-25T00:35:16.643Z,12.00
2019-01-25T00:36:16.632Z,12.90
2019-01-25T00:37:16.605Z,12.60
2019-01-25T00:38:16.600Z,13.60
2019-01-25T00:39:16.580Z,12.40
2019-01-25T00:40:16.585Z,11.80
2019-01-25T00:41:16.591Z,12.90
2019-01-25T00:42:16.548Z,11.90
2019-01-25T00:43:16.543Z,11.20
2019-01-25T00:44:16.544Z,11.90
2019-01-25T00:45:16.564Z,12.40
2019-01-25T00:46:16.513Z,13.10
2019-01-25T00:47:16.538Z,11.90
2019-01-25T00:48:16.487Z,13.50
2019-01-25T00:49:16.480Z,12.80
2019-01-25T00:50:16.480Z,13.50
2019-01-25T00:51:16.465Z,11.60
2019-01-25T00:52:16.475Z,12.40
2019-01-25T00:53:16.428Z,12.30
2019-01-25T00:54:16.421Z,12.70
2019-01-25T00:55:16.425Z,11.90
2019-01-25T00:56:16.407Z,12.70
2019-01-25T00:57:16.391Z,13.50
2019-01-25T00:58:16.382Z,11.30
2019-01-25T00:59:16.365Z,12.90
2019-01-25T01:00:16.378Z,11.90
2019-01-25T01:01:16.350Z,14.20
2019-01-25T01:02:16.347Z,12.80
2019-01-25T01:03:16.329Z,12.50
2019-01-25T01:04:16.323Z,11.30
2019-01-25T01:05:16.343Z,12.60
2019-01-25T01:06:16.295Z,12.60
2019-01-25T01:07:16.292Z,11.50
2019-01-25T01:08:16.287Z,12.50
2019-01-25T01:09:16.299Z,12.00
2019-01-25T01:10:16.270Z,12.30
2019-01-25T01:11:16.242Z,12.80
2019-01-25T01:12:16.232Z,12.10
2019-01-25T01:13:16.279Z,10.90
2019-01-25T01:14:16.292Z,12.90
2019-01-25T01:15:16.221Z,12.20
2019-01-25T01:16:16.192Z,12.20
2019-01-25T01:17:16.176Z,12.40
2019-01-25T01:18:16.171Z,12.00
2019-01-25T01:19:16.209Z,12.60
2019-01-25T01:20:16.167Z,12.90
2019-01-25T01:21:16.206Z,12.10
2019-01-25T01:22:16.129Z,12.60
2019-01-25T01:23:16.120Z,12.00
2019-01-25T01:24:16.131Z,13.30
2019-01-25T01:25:16.120Z,12.20
2019-01-25T01:26:16.088Z,12.80
2019-01-25T01:27:16.072Z,12.20
2019-01-25T01:28:16.058Z,11.90
2019-01-25T01:29:16.050Z,13.10
2019-01-25T01:30:16.077Z,12.30
2019-01-25T01:31:16.038Z,12.10
2019-01-25T01:32:16.029Z,12.90
2019-01-25T01:33:16.013Z,12.60
2019-01-25T01:34:15.993Z,12.10
2019-01-25T01:35:16.000Z,12.00
2019-01-25T01:36:15.976Z,12.70
2019-01-25T01:37:15.967Z,12.00
2019-01-25T01:38:15.962Z,11.90
2019-01-25T01:39:15.962Z,11.40
2019-01-25T01:40:21.817Z,13.20
2019-01-25T01:41:16.924Z,11.90
2019-01-25T01:42:15.917Z,12.40
2019-01-25T01:43:15.904Z,12.70
2019-01-25T01:44:15.901Z,11.70
2019-01-25T01:45:15.929Z,12.00
2019-01-25T01:46:15.902Z,12.80
2019-01-25T01:47:17.383Z,13.40
2019-01-25T01:48:15.849Z,11.10
2019-01-25T01:49:15.842Z,12.10
2019-01-25T01:50:15.858Z,13.10
2019-01-25T01:51:15.832Z,11.40
2019-01-25T01:52:15.814Z,12.10
2019-01-25T01:53:15.793Z,12.70
2019-01-25T01:54:15.789Z,13.00
2019-01-25T01:55:15.850Z,12.40
2019-01-25T01:56:15.773Z,14.70
2019-01-25T01:57:15.779Z,12.00
2019-01-25T01:58:15.744Z,12.70
2019-01-25T01:59:15.732Z,12.50
2019-01-25T02:00:15.729Z,11.80
2019-01-25T02:01:15.728Z,13.30
2019-01-25T02:02:15.702Z,12.00
2019-01-25T02:03:15.696Z,13.10
2019-01-25T02:04:15.682Z,10.90
2019-01-25T02:05:15.670Z,12.50
2019-01-25T02:06:15.674Z,13.00
2019-01-25T02:07:15.649Z,12.40
2019-01-25T02:08:15.641Z,11.00
2019-01-25T02:09:15.644Z,12.40
2019-01-25T02:10:15.614Z,11.60
2019-01-25T02:11:15.613Z,12.10
2019-01-25T02:12:15.597Z,11.80
2019-01-25T02:13:15.604Z,12.10
2019-01-25T02:14:15.576Z,12.90
2019-01-25T02:15:15.572Z,12.00
2019-01-25T02:16:15.585Z,12.20
2019-01-25T02:17:15.552Z,11.50
2019-01-25T02:18:15.557Z,12.20
2019-01-25T02:19:15.526Z,13.40
2019-01-25T02:20:15.516Z,13.40
2019-01-25T02:21:15.549Z,11.80
2019-01-25T02:22:15.568Z,13.40
2019-01-25T02:23:15.486Z,13.40
2019-01-25T02:24:15.474Z,13.10
2019-01-25T02:25:15.454Z,11.40
2019-01-25T02:26:15.458Z,11.30
2019-01-25T02:27:15.445Z,13.00
2019-01-25T02:28:15.421Z,13.60
2019-01-25T02:29:15.422Z,11.20
2019-01-25T02:30:15.421Z,12.10
2019-01-25T02:31:15.418Z,12.50
2019-01-25T02:32:15.393Z,11.60
2019-01-25T02:33:15.387Z,14.20
2019-01-25T02:34:15.369Z,11.60
2019-01-25T02:35:24.786Z,11.90
2019-01-25T02:36:15.368Z,13.20
2019-01-25T02:37:24.834Z,12.50
2019-01-25T02:38:15.317Z,12.40
2019-01-25T02:39:15.301Z,11.70
2019-01-25T02:40:15.294Z,12.40
2019-01-25T02:41:15.315Z,11.50
2019-01-25T02:42:15.276Z,12.40
2019-01-25T02:43:15.285Z,13.20
2019-01-25T02:44:15.298Z,12.90
2019-01-25T02:45:15.288Z,13.00
2019-01-25T02:46:15.323Z,13.10
2019-01-25T02:47:24.299Z,12.90
2019-01-25T02:48:15.205Z,12.00
2019-01-25T02:49:15.193Z,12.90
2019-01-25T02:50:15.184Z,12.40
2019-01-25T02:51:15.182Z,12.40
2019-01-25T02:52:15.163Z,12.60
2019-01-25T02:53:15.150Z,11.90
2019-01-25T02:54:15.143Z,12.70
2019-01-25T02:55:15.129Z,12.10
2019-01-25T02:56:15.132Z,12.90
2019-01-25T02:57:15.112Z,13.80
2019-01-25T02:58:15.099Z,11.60
2019-01-25T02:59:15.087Z,11.70
2019-01-25T03:00:15.078Z,12.40
2019-01-25T03:01:15.080Z,12.80
2019-01-25T03:02:15.059Z,11.40
2019-01-25T03:03:15.053Z,12.60
2019-01-25T03:04:15.041Z,12.00
2019-01-25T03:05:15.035Z,11.60
2019-01-25T03:06:15.024Z,13.40
2019-01-25T03:07:15.004Z,13.20
2019-01-25T03:08:14.995Z,13.20
2019-01-25T03:09:14.984Z,11.40
2019-01-25T03:10:14.971Z,12.50
2019-01-25T03:11:14.975Z,13.40
2019-01-25T03:12:14.950Z,12.80
2019-01-25T03:13:14.942Z,12.90
2019-01-25T03:14:14.932Z,13.10
2019-01-25T03:15:14.918Z,12.50
2019-01-25T03:16:14.920Z,12.80
2019-01-25T03:17:14.897Z,13.50
2019-01-25T03:18:14.891Z,12.70
2019-01-25T03:19:14.877Z,12.30
2019-01-25T03:20:14.875Z,12.20
2019-01-25T03:21:14.874Z,12.60
2019-01-25T03:22:14.846Z,12.80
2019-01-25T03:23:14.833Z,12.70
2019-01-25T03:24:14.823Z,12.70
2019-01-25T03:25:14.814Z,12.70
2019-01-25T03:26:14.814Z,13.80
2019-01-25T03:27:14.792Z,13.40
2019-01-25T03:28:14.782Z,14.70
2019-01-25T03:29:14.780Z,12.80
2019-01-25T03:30:14.760Z,12.60
2019-01-25T03:31:14.765Z,13.70
2019-01-25T03:32:14.750Z,13.50
2019-01-25T03:33:14.731Z,13.50
2019-01-25T03:34:14.717Z,14.00
2019-01-25T03:35:14.706Z,12.40
2019-01-25T03:36:14.709Z,13.30
2019-01-25T03:37:14.685Z,13.30
2019-01-25T03:38:14.674Z,13.00
2019-01-25T03:39:14.664Z,13.30
2019-01-25T03:40:14.660Z,13.50
2019-01-25T03:41:14.675Z,13.60
2019-01-25T03:42:14.633Z,11.90
2019-01-25T03:43:14.625Z,12.80
2019-01-25T03:44:14.612Z,11.80
2019-01-25T03:45:14.601Z,12.80
2019-01-25T03:46:14.601Z,14.00
2019-01-25T03:47:14.579Z,12.70
2019-01-25T03:48:14.570Z,11.70
2019-01-25T03:49:14.563Z,12.20
2019-01-25T03:50:14.567Z,13.20
2019-01-25T03:51:14.550Z,14.20
2019-01-25T03:52:14.527Z,12.60
2019-01-25T03:53:14.517Z,12.80
2019-01-25T03:54:14.505Z,12.60
2019-01-25T03:55:14.495Z,12.40
2019-01-25T03:56:14.499Z,12.00
2019-01-25T03:57:14.474Z,12.80
2019-01-25T03:58:14.464Z,12.90
2019-01-25T03:59:14.454Z,12.80
2019-01-25T04:00:14.441Z,12.70
2019-01-25T04:01:14.449Z,13.00
2019-01-25T04:02:14.420Z,12.70
2019-01-25T04:03:14.409Z,12.90
2019-01-25T04:04:14.399Z,13.30
2019-01-25T04:05:14.389Z,11.60
2019-01-25T04:06:14.438Z,12.70
2019-01-25T04:07:23.859Z,13.60
2019-01-25T04:08:14.360Z,12.70
2019-01-25T04:09:14.385Z,12.50
2019-01-25T04:10:14.335Z,12.00
2019-01-25T04:11:14.340Z,12.70
2019-01-25T04:12:14.316Z,13.40
2019-01-25T04:13:14.304Z,12.90
2019-01-25T04:14:14.292Z,12.70
2019-01-25T04:15:23.384Z,12.50
2019-01-25T04:16:14.305Z,12.90
2019-01-25T04:17:14.266Z,12.90
2019-01-25T04:18:14.300Z,12.10
2019-01-25T04:19:14.252Z,12.20
2019-01-25T04:20:14.230Z,12.20
2019-01-25T04:21:14.222Z,10.80
2019-01-25T04:22:14.221Z,12.30
2019-01-25T04:23:14.198Z,12.70
2019-01-25T04:24:14.201Z,11.20
2019-01-25T04:25:14.199Z,13.40
2019-01-25T04:26:14.171Z,12.20
2019-01-25T04:27:14.174Z,12.30
2019-01-25T04:28:14.169Z,12.60
2019-01-25T04:29:14.138Z,11.90
2019-01-25T04:30:14.137Z,12.00
2019-01-25T04:31:14.115Z,12.40
2019-01-25T04:32:14.113Z,12.30
2019-01-25T04:33:14.095Z,11.50
2019-01-25T04:34:14.090Z,11.20
2019-01-25T04:35:14.073Z,12.20
2019-01-25T04:36:14.075Z,12.00
2019-01-25T04:37:14.075Z,11.80
2019-01-25T04:38:14.042Z,11.10
2019-01-25T04:39:14.030Z,11.50
2019-01-25T04:40:14.019Z,12.80
2019-01-25T04:41:14.013Z,10.90
2019-01-25T04:42:14.015Z,12.80
2019-01-25T04:43:13.991Z,10.80
2019-01-25T04:44:13.976Z,12.90
2019-01-25T04:45:13.971Z,12.80
2019-01-25T04:46:13.953Z,12.00
2019-01-25T04:47:13.957Z,11.60
2019-01-25T04:48:13.934Z,11.20
2019-01-25T04:49:13.924Z,13.40
2019-01-25T04:50:13.918Z,10.80
2019-01-25T04:51:13.902Z,10.60
2019-01-25T04:52:13.909Z,11.40
2019-01-25T04:53:13.886Z,12.70
2019-01-25T04:54:13.874Z,12.40
2019-01-25T04:55:13.867Z,12.00
2019-01-25T04:56:13.851Z,12.70
2019-01-25T04:57:13.856Z,12.50
2019-01-25T04:58:13.831Z,13.80
2019-01-25T04:59:13.824Z,12.40
2019-01-25T05:00:13.812Z,14.10
2019-01-25T05:01:13.806Z,13.60
2019-01-25T05:02:13.802Z,12.90
2019-01-25T05:03:13.777Z,14.20
2019-01-25T05:04:13.769Z,13.90
2019-01-25T05:05:13.758Z,13.00
2019-01-25T05:06:13.747Z,13.80
2019-01-25T05:07:13.746Z,15.30
2019-01-25T05:08:13.729Z,14.50
2019-01-25T05:09:13.711Z,13.90
2019-01-25T05:10:13.706Z,14.00
2019-01-25T05:11:19.744Z,13.90
2019-01-25T05:12:14.691Z,13.40
2019-01-25T05:13:13.677Z,13.80
2019-01-25T05:14:13.659Z,15.10
2019-01-25T05:15:13.653Z,12.50
2019-01-25T05:16:13.640Z,14.20
2019-01-25T05:17:13.640Z,14.80
2019-01-25T05:18:13.622Z,14.20
2019-01-25T05:19:13.615Z,13.70
2019-01-25T05:20:13.596Z,14.70
2019-01-25T05:21:13.586Z,15.00
2019-01-25T05:22:13.588Z,14.20
2019-01-25T05:23:13.574Z,13.50
2019-01-25T05:24:13.557Z,13.60
2019-01-25T05:25:13.546Z,12.80
2019-01-25T05:26:13.534Z,13.20
2019-01-25T05:27:13.532Z,14.90
2019-01-25T05:28:13.513Z,13.70
2019-01-25T05:29:13.509Z,13.70
2019-01-25T05:30:13.540Z,13.20
2019-01-25T05:31:13.480Z,13.00
2019-01-25T05:32:13.480Z,15.10
2019-01-25T05:33:13.457Z,13.70
2019-01-25T05:34:13.447Z,12.40
2019-01-25T05:35:13.444Z,13.60
2019-01-25T05:36:13.431Z,14.00
2019-01-25T05:37:13.427Z,12.50
2019-01-25T05:38:13.404Z,13.80
2019-01-25T05:39:13.398Z,13.90
2019-01-25T05:40:13.386Z,13.90
2019-01-25T05:41:13.377Z,14.40
2019-01-25T05:42:13.384Z,13.60
2019-01-25T05:43:13.353Z,12.00
2019-01-25T05:44:13.344Z,14.60
2019-01-25T05:45:13.334Z,12.10
2019-01-25T05:46:13.319Z,12.70
2019-01-25T05:47:13.371Z,13.90
2019-01-25T05:48:13.301Z,13.10
2019-01-25T05:49:13.367Z,12.50
2019-01-25T05:50:13.283Z,13.30
2019-01-25T05:51:13.269Z,13.30
2019-01-25T05:52:13.283Z,13.20
2019-01-25T05:53:13.261Z,12.80
2019-01-25T05:54:13.240Z,12.40
2019-01-25T05:55:13.230Z,13.10
2019-01-25T05:56:13.224Z,12.80
2019-01-25T05:57:13.227Z,12.50
2019-01-25T05:58:13.201Z,12.40
2019-01-25T05:59:13.195Z,12.20
2019-01-25T06:00:13.175Z,13.80
2019-01-25T06:01:13.162Z,12.50
2019-01-25T06:02:13.166Z,12.60
2019-01-25T06:03:13.143Z,12.60
2019-01-25T06:04:13.134Z,13.10
2019-01-25T06:05:13.125Z,13.30
2019-01-25T06:06:13.110Z,12.90
2019-01-25T06:07:13.113Z,13.30
2019-01-25T06:08:13.092Z,12.80
2019-01-25T06:09:13.080Z,12.60
2019-01-25T06:10:13.069Z,13.90
2019-01-25T06:11:13.065Z,12.60
2019-01-25T06:12:13.057Z,12.30
2019-01-25T06:13:13.035Z,13.00
2019-01-25T06:14:13.050Z,15.00
2019-01-25T06:15:13.023Z,13.40
2019-01-25T06:16:13.043Z,13.40
2019-01-25T06:17:13.016Z,12.70
2019-01-25T06:18:12.986Z,13.50
2019-01-25T06:19:12.984Z,14.30
2019-01-25T06:20:12.975Z,13.90
2019-01-25T06:21:12.958Z,13.10
2019-01-25T06:22:12.958Z,14.50
2019-01-25T06:23:12.945Z,14.50
2019-01-25T06:24:12.923Z,15.60
2019-01-25T06:25:12.930Z,13.30
2019-01-25T06:26:12.916Z,13.70
2019-01-25T06:27:12.913Z,14.10
2019-01-25T06:28:12.882Z,14.40
2019-01-25T06:29:12.873Z,14.10
2019-01-25T06:30:12.865Z,14.20
2019-01-25T06:31:12.852Z,13.80
2019-01-25T06:32:12.841Z,14.40
2019-01-25T06:33:12.849Z,13.60
2019-01-25T06:34:12.822Z,12.80
2019-01-25T06:35:12.807Z,14.30
2019-01-25T06:36:12.799Z,15.90
2019-01-25T06:37:12.786Z,14.40
2019-01-25T06:38:12.798Z,13.20
2019-01-25T06:39:12.769Z,14.30
2019-01-25T06:40:12.758Z,14.80
2019-01-25T06:41:12.756Z,14.90
2019-01-25T06:42:12.735Z,14.50
2019-01-25T06:43:12.788Z,14.00
2019-01-25T06:44:12.712Z,14.10
2019-01-25T06:45:12.711Z,14.40
2019-01-25T06:46:12.705Z,12.90
2019-01-25T06:47:12.681Z,13.20
2019-01-25T06:48:12.688Z,13.90
2019-01-25T06:49:12.662Z,12.10
2019-01-25T06:50:12.652Z,13.90
2019-01-25T06:51:12.647Z,14.80
2019-01-25T06:52:12.636Z,15.00
2019-01-25T06:53:12.637Z,13.60
2019-01-25T06:54:12.616Z,15.10
2019-01-25T06:55:12.597Z,14.10
2019-01-25T06:56:12.586Z,14.50
2019-01-25T06:57:12.579Z,15.20
2019-01-25T06:58:12.582Z,13.70
2019-01-25T06:59:12.558Z,14.00
2019-01-25T07:00:12.541Z,13.60
2019-01-25T07:01:12.533Z,13.60
2019-01-25T07:02:12.522Z,14.50
2019-01-25T07:03:12.533Z,14.30
2019-01-25T07:04:12.532Z,13.70
2019-01-25T07:05:12.511Z,15.50
2019-01-25T07:06:12.479Z,15.40
2019-01-25T07:07:12.471Z,15.40
2019-01-25T07:08:12.478Z,14.50
2019-01-25T07:09:12.451Z,14.00
2019-01-25T07:10:12.441Z,14.00
2019-01-25T07:11:12.425Z,13.60
2019-01-25T07:12:12.418Z,12.60
2019-01-25T07:13:12.426Z,14.50
2019-01-25T07:14:12.403Z,14.30
2019-01-25T07:15:12.391Z,13.50
2019-01-25T07:16:12.382Z,14.10
2019-01-25T07:17:12.370Z,13.80
2019-01-25T07:18:12.411Z,12.70
2019-01-25T07:19:12.340Z,12.40
2019-01-25T07:20:12.339Z,14.70
2019-01-25T07:21:12.327Z,13.30
2019-01-25T07:22:12.313Z,13.40
2019-01-25T07:23:12.310Z,13.60
2019-01-25T07:24:12.281Z,13.30
2019-01-25T07:25:12.278Z,13.30
2019-01-25T07:26:12.261Z,13.60
2019-01-25T07:27:12.274Z,13.00
2019-01-25T07:28:12.257Z,12.80
2019-01-25T07:29:12.247Z,13.10
2019-01-25T07:30:12.230Z,13.70
2019-01-25T07:31:12.420Z,12.50
2019-01-25T07:32:12.205Z,14.50
2019-01-25T07:33:12.206Z,13.40
2019-01-25T07:34:12.203Z,12.60
2019-01-25T07:35:12.169Z,13.20
2019-01-25T07:36:12.174Z,12.70
2019-01-25T07:37:12.159Z,13.40
2019-01-25T07:38:12.165Z,12.00
2019-01-25T07:39:12.126Z,12.80
2019-01-25T07:40:12.115Z,13.90
2019-01-25T07:41:12.293Z,13.40
2019-01-25T07:42:12.094Z,12.80
2019-01-25T07:43:12.097Z,13.20
2019-01-25T07:44:12.072Z,13.60
2019-01-25T07:45:12.062Z,14.30
2019-01-25T07:46:12.058Z,13.00
2019-01-25T07:47:12.052Z,13.20
2019-01-25T07:48:12.051Z,14.90
2019-01-25T07:49:12.029Z,12.60
2019-01-25T07:50:12.141Z,14.10
2019-01-25T07:51:12.011Z,11.40
2019-01-25T07:52:11.992Z,12.70
2019-01-25T07:53:11.998Z,13.10
2019-01-25T07:54:11.976Z,11.90
2019-01-25T07:55:12.022Z,13.00
2019-01-25T07:56:11.948Z,12.80
2019-01-25T07:57:11.948Z,12.80
2019-01-25T07:58:11.964Z,12.20
2019-01-25T07:59:11.919Z,13.20
2019-01-25T08:00:11.953Z,11.90
2019-01-25T08:01:11.903Z,12.70
2019-01-25T08:02:11.888Z,12.70
2019-01-25T08:03:11.884Z,12.30
2019-01-25T08:04:11.893Z,11.90
2019-01-25T08:05:11.850Z,11.60
2019-01-25T08:06:11.868Z,11.00
2019-01-25T08:07:11.829Z,11.60
2019-01-25T08:08:11.842Z,11.70
2019-01-25T08:09:11.825Z,12.30
2019-01-25T08:10:11.806Z,12.20
2019-01-25T08:11:11.793Z,13.10
2019-01-25T08:12:11.784Z,12.80
2019-01-25T08:13:11.784Z,13.80
2019-01-25T08:14:12.880Z,13.10
2019-01-25T08:15:11.843Z,12.40
2019-01-25T08:16:11.787Z,11.40
2019-01-25T08:17:11.780Z,11.70
2019-01-25T08:18:11.780Z,10.70
2019-01-25T08:19:11.704Z,12.60
2019-01-25T08:20:11.695Z,12.10
2019-01-25T08:21:11.686Z,11.90
2019-01-25T08:22:11.679Z,11.90
2019-01-25T08:23:11.690Z,12.30
2019-01-25T08:24:11.682Z,11.90
2019-01-25T08:25:11.661Z,12.60
2019-01-25T08:26:11.677Z,12.90
2019-01-25T08:27:11.645Z,13.20
2019-01-25T08:28:11.631Z,12.50
2019-01-25T08:29:11.793Z,12.50
2019-01-25T08:30:11.645Z,13.40
2019-01-25T08:31:11.598Z,12.80
2019-01-25T08:32:11.573Z,13.80
2019-01-25T08:33:11.563Z,12.70
2019-01-25T08:34:11.590Z,13.40
2019-01-25T08:35:11.564Z,12.00
2019-01-25T08:36:11.534Z,12.60
2019-01-25T08:37:11.586Z,13.00
2019-01-25T08:38:11.540Z,13.00
2019-01-25T08:39:11.553Z,14.30
2019-01-25T08:40:11.493Z,13.20
2019-01-25T08:41:11.479Z,13.60
2019-01-25T08:42:15.716Z,12.80
2019-01-25T08:43:11.623Z,13.20
2019-01-25T08:44:11.466Z,12.90
2019-01-25T08:45:11.430Z,12.30
2019-01-25T08:46:11.423Z,13.60
2019-01-25T08:47:11.427Z,13.00
2019-01-25T08:48:11.417Z,14.30
2019-01-25T08:49:11.401Z,13.40
2019-01-25T08:50:11.390Z,12.80
2019-01-25T08:51:11.679Z,13.00
2019-01-25T08:52:11.360Z,13.60
2019-01-25T08:53:11.399Z,13.00
2019-01-25T08:54:11.358Z,14.10
2019-01-25T08:55:11.333Z,13.40
2019-01-25T08:56:11.316Z,14.30
2019-01-25T08:57:11.307Z,12.50
2019-01-25T08:58:11.301Z,14.40
2019-01-25T08:59:11.415Z,15.40
2019-01-25T09:00:11.277Z,13.00
2019-01-25T09:01:11.266Z,14.30
2019-01-25T09:02:11.255Z,13.30
2019-01-25T09:03:11.246Z,13.60
2019-01-25T09:04:11.242Z,13.50
2019-01-25T09:05:11.525Z,12.80
2019-01-25T09:06:11.216Z,13.60
2019-01-25T09:07:11.198Z,13.00
2019-01-25T09:08:11.192Z,12.80
2019-01-25T09:09:11.189Z,14.10
2019-01-25T09:10:11.167Z,14.80
2019-01-25T09:11:11.154Z,15.10
2019-01-25T09:12:11.144Z,12.40
2019-01-25T09:13:11.133Z,12.10
2019-01-25T09:14:11.132Z,13.30
2019-01-25T09:15:11.112Z,13.40
2019-01-25T09:16:11.103Z,13.50
2019-01-25T09:17:11.089Z,12.50
2019-01-25T09:18:11.076Z,12.80
2019-01-25T09:19:11.088Z,13.20
2019-01-25T09:20:14.581Z,13.90
2019-01-25T09:21:11.043Z,14.60
2019-01-25T09:22:11.033Z,13.70
2019-01-25T09:23:11.024Z,16.00
2019-01-25T09:24:11.027Z,13.20
2019-01-25T09:25:11.005Z,14.40
2019-01-25T09:26:10.991Z,12.20
2019-01-25T09:27:10.982Z,13.50
2019-01-25T09:28:10.975Z,10.60
2019-01-25T09:29:10.987Z,12.60
2019-01-25T09:30:10.947Z,12.60
2019-01-25T09:31:10.937Z,12.30
2019-01-25T09:32:10.926Z,12.20
2019-01-25T09:33:10.915Z,13.90
2019-01-25T09:34:10.917Z,12.40
2019-01-25T09:35:10.895Z,13.10
2019-01-25T09:36:10.944Z,13.60
2019-01-25T09:37:10.878Z,11.90
2019-01-25T09:38:10.865Z,14.60
2019-01-25T09:39:10.866Z,12.40
2019-01-25T09:40:10.901Z,11.80
2019-01-25T09:41:10.840Z,12.80
2019-01-25T09:42:10.828Z,14.10
2019-01-25T09:43:10.828Z,14.30
2019-01-25T09:44:10.818Z,14.50
2019-01-25T09:45:10.787Z,14.10
2019-01-25T09:46:10.787Z,13.20
2019-01-25T09:47:10.770Z,11.30
2019-01-25T09:48:10.763Z,12.60
2019-01-25T09:49:10.773Z,12.50
2019-01-25T09:50:10.746Z,13.00
2019-01-25T09:51:10.733Z,12.80
2019-01-25T09:52:10.723Z,12.90
2019-01-25T09:53:10.714Z,11.70
2019-01-25T09:54:10.713Z,13.90
2019-01-25T09:55:10.690Z,12.30
2019-01-25T09:56:10.678Z,12.70
2019-01-25T09:57:10.673Z,12.90
2019-01-25T09:58:10.659Z,13.10
2019-01-25T09:59:10.668Z,12.10
2019-01-25T10:00:10.633Z,11.90
2019-01-25T10:01:10.622Z,11.60
2019-01-25T10:02:10.616Z,10.90
2019-01-25T10:03:10.602Z,10.80
2019-01-25T10:04:10.603Z,11.90
2019-01-25T10:05:10.581Z,12.10
2019-01-25T10:06:10.570Z,11.20
2019-01-25T10:07:10.560Z,11.80
2019-01-25T10:08:10.543Z,11.80
2019-01-25T10:09:10.546Z,11.30
2019-01-25T10:10:10.527Z,11.60
2019-01-25T10:11:10.516Z,10.80
2019-01-25T10:12:10.504Z,10.30
2019-01-25T10:13:10.489Z,10.40
2019-01-25T10:14:10.498Z,10.70
2019-01-25T10:15:10.469Z,11.30
2019-01-25T10:16:10.460Z,12.30
2019-01-25T10:17:10.448Z,11.30
2019-01-25T10:18:10.441Z,11.30
2019-01-25T10:19:10.439Z,10.10
2019-01-25T10:20:10.420Z,11.40
2019-01-25T10:21:10.404Z,11.50
2019-01-25T10:22:10.395Z,10.50
2019-01-25T10:23:10.382Z,11.20
2019-01-25T10:24:10.385Z,10.40
2019-01-25T10:25:10.360Z,10.80
2019-01-25T10:26:10.352Z,10.50
2019-01-25T10:27:10.337Z,10.40
2019-01-25T10:28:10.330Z,10.10
2019-01-25T10:29:10.327Z,10.30
2019-01-25T10:30:10.308Z,10.60
2019-01-25T10:31:10.294Z,10.60
2019-01-25T10:32:10.287Z,10.80
2019-01-25T10:33:10.273Z,10.60
2019-01-25T10:34:10.276Z,10.80
2019-01-25T10:35:10.252Z,11.30
2019-01-25T10:36:10.243Z,10.40
2019-01-25T10:37:10.233Z,11.20
2019-01-25T10:38:10.225Z,10.10
2019-01-25T10:39:10.222Z,10.90
2019-01-25T10:40:10.211Z,10.80
2019-01-25T10:41:10.196Z,10.60
2019-01-25T10:42:10.192Z,10.40
2019-01-25T10:43:10.174Z,10.20
2019-01-25T10:44:10.173Z,10.20
2019-01-25T10:45:10.150Z,10.30
2019-01-25T10:46:10.137Z,10.20
2019-01-25T10:47:10.120Z,9.40
2019-01-25T10:48:10.112Z,11.60
2019-01-25T10:49:10.118Z,11.10
2019-01-25T10:50:10.088Z,9.40
2019-01-25T10:51:10.078Z,10.60
2019-01-25T10:52:10.065Z,10.40
2019-01-25T10:53:10.056Z,9.80
2019-01-25T10:54:10.062Z,10.90
2019-01-25T10:55:10.033Z,10.70
2019-01-25T10:56:10.022Z,10.70
2019-01-25T10:57:10.018Z,10.80
2019-01-25T10:58:10.002Z,10.40
2019-01-25T10:59:10.002Z,10.70
2019-01-25T11:00:09.981Z,11.70
2019-01-25T11:01:10.019Z,10.90
2019-01-25T11:02:09.958Z,11.20
2019-01-25T11:03:09.950Z,11.30
2019-01-25T11:04:11.662Z,10.30
2019-01-25T11:05:09.934Z,10.80
2019-01-25T11:06:09.918Z,10.80
2019-01-25T11:07:09.906Z,11.40
2019-01-25T11:08:09.900Z,10.20
2019-01-25T11:09:09.886Z,10.00
2019-01-25T11:10:09.897Z,10.80
2019-01-25T11:11:09.861Z,9.70
2019-01-25T11:12:09.860Z,10.90
2019-01-25T11:13:09.840Z,10.20
2019-01-25T11:14:09.852Z,10.50
2019-01-25T11:15:09.833Z,10.50
2019-01-25T11:16:11.906Z,10.40
2019-01-25T11:17:09.803Z,9.70
2019-01-25T11:18:09.783Z,10.40
2019-01-25T11:19:09.777Z,10.50
2019-01-25T11:20:09.775Z,9.00
2019-01-25T11:21:11.296Z,9.50
2019-01-25T11:22:09.746Z,8.50
2019-01-25T11:23:09.732Z,9.30
2019-01-25T11:24:09.722Z,9.30
2019-01-25T11:25:09.726Z,10.30
2019-01-25T11:26:09.700Z,8.80
2019-01-25T11:27:09.694Z,10.10
2019-01-25T11:28:09.696Z,10.10
2019-01-25T11:29:09.676Z,8.90
2019-01-25T11:30:09.675Z,9.50
2019-01-25T11:31:09.650Z,8.50
2019-01-25T11:32:09.639Z,9.40
2019-01-25T11:33:09.630Z,9.40
2019-01-25T11:34:09.614Z,9.80
2019-01-25T11:35:09.631Z,10.50
2019-01-25T11:36:09.599Z,9.90
2019-01-25T11:37:09.588Z,9.90
2019-01-25T11:38:09.574Z,10.50
2019-01-25T11:39:09.564Z,9.40
2019-01-25T11:40:09.572Z,9.70
2019-01-25T11:41:09.542Z,10.20
2019-01-25T11:42:09.529Z,9.40
2019-01-25T11:43:09.524Z,9.40
2019-01-25T11:44:09.507Z,8.60
2019-01-25T11:45:09.506Z,9.20
2019-01-25T11:46:09.482Z,9.60
2019-01-25T11:47:09.472Z,9.60
2019-01-25T11:48:09.464Z,8.10
2019-01-25T11:49:09.450Z,9.70
2019-01-25T11:50:09.450Z,8.70
2019-01-25T11:51:09.429Z,8.30
2019-01-25T11:52:09.418Z,8.90
2019-01-25T11:53:09.406Z,8.40
2019-01-25T11:54:09.397Z,8.40
2019-01-25T11:55:09.402Z,8.40
2019-01-25T11:56:09.381Z,9.00
2019-01-25T11:57:09.363Z,9.90
2019-01-25T11:58:09.353Z,9.40
2019-01-25T11:59:09.343Z,9.70
2019-01-25T12:00:09.344Z,8.10
2019-01-25T12:01:09.320Z,8.20
2019-01-25T12:02:09.317Z,8.50
2019-01-25T12:03:09.299Z,8.10
2019-01-25T12:04:09.289Z,8.20
2019-01-25T12:05:09.290Z,8.80
2019-01-25T12:06:09.267Z,8.80
2019-01-25T12:07:09.255Z,7.90
2019-01-25T12:08:09.247Z,8.70
2019-01-25T12:09:09.235Z,9.50
2019-01-25T12:10:09.241Z,7.80
2019-01-25T12:11:09.213Z,9.80
2019-01-25T12:12:09.202Z,7.80
2019-01-25T12:13:15.847Z,8.50
2019-01-25T12:14:10.178Z,9.20
2019-01-25T12:15:09.183Z,9.20
2019-01-25T12:16:09.159Z,9.40
2019-01-25T12:17:09.149Z,10.00
2019-01-25T12:18:09.138Z,9.80
2019-01-25T12:19:09.143Z,9.20
2019-01-25T12:20:09.126Z,9.30
2019-01-25T12:21:09.111Z,9.20
2019-01-25T12:22:09.097Z,9.00
2019-01-25T12:23:09.086Z,9.50
2019-01-25T12:24:09.077Z,10.10
2019-01-25T12:25:09.073Z,9.10
2019-01-25T12:26:09.050Z,10.20
2019-01-25T12:27:09.041Z,9.60
2019-01-25T12:28:09.032Z,9.50
2019-01-25T12:29:09.018Z,10.60
2019-01-25T12:30:09.034Z,11.00
2019-01-25T12:31:09.000Z,9.50
2019-01-25T12:32:08.987Z,10.30
2019-01-25T12:33:08.977Z,9.90
2019-01-25T12:34:08.966Z,10.80
2019-01-25T12:35:08.974Z,11.20
2019-01-25T12:36:08.953Z,9.30
2019-01-25T12:37:08.934Z,9.50
2019-01-25T12:38:08.922Z,10.30
2019-01-25T12:39:08.990Z,10.00
2019-01-25T12:40:08.917Z,9.60
2019-01-25T12:41:08.895Z,10.10
2019-01-25T12:42:08.883Z,10.90
2019-01-25T12:43:08.871Z,10.60
2019-01-25T12:44:08.857Z,11.60
2019-01-25T12:45:08.865Z,10.80
2019-01-25T12:46:08.839Z,10.60
2019-01-25T12:47:08.830Z,11.80
2019-01-25T12:48:08.814Z,10.60
2019-01-25T12:49:08.803Z,10.90
2019-01-25T12:50:08.813Z,10.50
2019-01-25T12:51:08.784Z,10.00
2019-01-25T12:52:08.772Z,11.10
2019-01-25T12:53:08.766Z,10.90
2019-01-25T12:54:08.752Z,9.60